sim
Sign-in with your pilot id or email,
or register
Callsign
Passwort

Schedule Details

Flight Number: OEO2075
Departure: Helsinki Vantaa Airport (EFHK) at 16:00
Arrival: Munich Airport (EDDM) at 18:45

Weather Information
Getting current METAR information for EFHK 250350Z 18008KT 9000 FEW008 15/14 Q1006 TEMPO 7000
Getting current METAR information for EDDM 250350Z 21005KT 9999 -RA SCT040 13/12 Q1001 NOSIG

Schedule Frequency

Route Map